Welcome to the Virtual
Houston Air Route Traffic Control Center

Login

 
 

Forgot your password?

Controllers Online
Callsign Controller
Loading...
Updated --
Airport Information
ICAO Rules Wind Baro
Loading...
Updated --
Full Weather Information
Top Controllers - Jun '17
Controller Online
En-Route / Oceanic
1 Brandon Barrett (I1) 24:25
2 Ayler Cruz (C1) 22:12
3 Cole Connelly (I3) 08:47
4 John Manley (C1) 07:32
5 Reuben Prevost (I1) 04:29
Terminal RADAR
1 John Manley (C1) 25:50
2 Sebastian Knoop-Troullier (S3) 23:07
3 Jonathan Voss (C3) 16:55
4 Brandon Vincitore (S3) 14:16
5 Matthew Kosmoski (C1) 11:47
C/G/L Control
1 Ryan Barnes (S1) 88:18
2 Robert Heilman (S2) 50:25
3 Alan Johnston (S1) 47:18
4 Jason Lu (S2) 26:48
5 Evan Bradley (S2) 23:28
Full Controller Statistics

VATSIM
VATUSA

Weather


KAUSKAUS 260647Z 11007KT 2 1/2SM +RA BR SCT026 BKN050 OVC060 24/23 A3012 RMK AO2 RAB45 P0003
KBTRKBTR 260553Z AUTO 05005KT 10SM CLR 23/19 A3013 RMK AO2 SLP202 T02280189 10294 20228 403110228 58000
KCRPKCRP 260551Z 12005KT 10SM FEW020 FEW028 27/24 A3006 RMK AO2 SLP177 60000 T02670239 10317 20267 403390256 50002 $
KGPTKGPT 260553Z AUTO 01003KT 10SM CLR 23/19 A3012 RMK AO2 SLP197 T02330194 10300 20233 403220233 50001 $
KHOUKHOU 260553Z 07004KT 10SM FEW020 SCT046 BKN150 BKN250 26/22 A3010 RMK AO2 SLP198 T02560222 10300 20256 403110239 50003 $
KIAHKIAH 260553Z 10006KT 10SM FEW031 SCT065 BKN150 BKN250 23/22 A3012 RMK AO2 SLP198 T02330217 10267 20233 403060211 50003
KLCHKLCH 260621Z AUTO 04007KT 10SM FEW030 BKN041 BKN050 25/23 A3011 RMK AO2 T02500228 $
KMOBKMOB 260556Z AUTO 01005KT 10SM CLR 22/18 A3014 RMK AO2 SLP202 T02220183 10283 20222 403280222 50001
KMSYKMSY 260553Z 05006KT 10SM SCT055 BKN250 26/22 A3012 RMK AO2 SLP202 OCNL LTGIC DSNT S CB DSNT S 60036 T02560217 10289 20250 403110228 50004 $
KSATKSAT 260633Z 06003KT 10SM BKN013 BKN050 BKN250 24/21 A3012 RMK AO2 T02390206